createdAt,value
2022-07-26T00:00:42.480Z,16.20
2022-07-26T00:03:09.099Z,15.32
2022-07-26T00:05:35.472Z,16.58
2022-07-26T00:08:02.184Z,15.27
2022-07-26T00:10:29.731Z,15.02
2022-07-26T00:12:56.083Z,14.98
2022-07-26T00:15:22.397Z,15.27
2022-07-26T00:17:48.727Z,14.98
2022-07-26T00:20:15.084Z,15.48
2022-07-26T00:22:41.529Z,15.20
2022-07-26T00:25:07.849Z,15.23
2022-07-26T00:27:34.201Z,14.57
2022-07-26T00:30:00.609Z,16.08
2022-07-26T00:32:26.888Z,14.52
2022-07-26T00:34:53.217Z,15.00
2022-07-26T00:37:20.552Z,14.63
2022-07-26T00:39:47.132Z,14.70
2022-07-26T00:42:13.645Z,14.82
2022-07-26T00:44:39.999Z,14.95
2022-07-26T00:47:06.310Z,15.15
2022-07-26T00:49:32.679Z,13.50
2022-07-26T00:51:59.009Z,15.98
2022-07-26T00:54:25.380Z,14.98
2022-07-26T00:56:55.077Z,14.80
2022-07-26T00:59:21.668Z,14.20
2022-07-26T01:01:48.210Z,14.73
2022-07-26T01:04:14.636Z,14.27
2022-07-26T01:06:40.958Z,13.77
2022-07-26T01:09:07.443Z,13.32
2022-07-26T01:11:34.061Z,13.95
2022-07-26T01:14:00.439Z,13.85
2022-07-26T01:16:27.006Z,14.35
2022-07-26T01:18:53.452Z,12.80
2022-07-26T01:21:19.967Z,13.00
2022-07-26T01:23:46.293Z,12.98
2022-07-26T01:26:12.708Z,13.52
2022-07-26T01:28:40.274Z,12.48
2022-07-26T01:31:06.588Z,12.50
2022-07-26T01:33:33.031Z,12.93
2022-07-26T01:35:59.430Z,12.85
2022-07-26T01:38:25.824Z,12.77
2022-07-26T01:40:52.241Z,12.25
2022-07-26T01:43:18.624Z,12.00
2022-07-26T01:45:45.114Z,12.98
2022-07-26T01:48:11.499Z,13.10
2022-07-26T01:50:37.771Z,12.77
2022-07-26T01:53:06.119Z,11.38
2022-07-26T01:55:32.923Z,11.65
2022-07-26T01:58:00.670Z,12.13
2022-07-26T02:00:27.092Z,12.20
2022-07-26T02:02:53.762Z,12.45
2022-07-26T02:05:20.302Z,11.48
2022-07-26T02:07:46.715Z,11.88
2022-07-26T02:10:14.535Z,12.05
2022-07-26T02:12:41.010Z,11.98
2022-07-26T02:15:07.542Z,11.80
2022-07-26T02:17:33.960Z,11.68
2022-07-26T02:20:00.292Z,11.60
2022-07-26T02:22:26.798Z,10.55
2022-07-26T02:24:53.504Z,11.40
2022-07-26T02:27:20.148Z,10.77
2022-07-26T02:29:46.751Z,11.82
2022-07-26T02:32:13.098Z,10.55
2022-07-26T02:34:39.494Z,10.23
2022-07-26T02:37:05.921Z,11.32
2022-07-26T02:39:32.321Z,12.15
2022-07-26T02:41:58.731Z,10.82
2022-07-26T02:44:25.075Z,10.25
2022-07-26T02:46:51.501Z,10.60
2022-07-26T02:49:18.088Z,12.55
2022-07-26T02:51:44.558Z,10.90
2022-07-26T02:54:11.334Z,11.15
2022-07-26T02:56:38.066Z,10.65
2022-07-26T02:59:04.744Z,10.77
2022-07-26T03:01:31.178Z,10.38
2022-07-26T03:03:57.521Z,10.85
2022-07-26T03:06:23.913Z,10.10
2022-07-26T03:08:50.522Z,9.65
2022-07-26T03:11:16.831Z,10.18
2022-07-26T03:13:43.133Z,10.82
2022-07-26T03:16:09.584Z,9.95
2022-07-26T03:18:36.055Z,11.15
2022-07-26T03:21:02.446Z,10.20
2022-07-26T03:23:28.780Z,10.00
2022-07-26T03:25:55.100Z,9.88
2022-07-26T03:28:21.480Z,9.73
2022-07-26T03:30:47.848Z,10.80
2022-07-26T03:33:14.272Z,10.88
2022-07-26T03:35:40.630Z,10.38
2022-07-26T03:38:06.944Z,9.55
2022-07-26T03:40:33.282Z,9.57
2022-07-26T03:42:59.569Z,9.57
2022-07-26T03:45:26.210Z,9.93
2022-07-26T03:47:52.555Z,10.07
2022-07-26T03:50:18.880Z,9.27
2022-07-26T03:52:45.307Z,10.18
2022-07-26T03:55:11.596Z,9.75
2022-07-26T03:57:37.877Z,9.73
2022-07-26T04:00:04.427Z,9.68
2022-07-26T04:02:30.832Z,9.13
2022-07-26T04:04:57.219Z,10.40
2022-07-26T04:07:23.531Z,9.80
2022-07-26T04:09:53.335Z,9.63
2022-07-26T04:12:21.188Z,9.63
2022-07-26T04:14:47.635Z,10.05
2022-07-26T04:17:14.155Z,9.75
2022-07-26T04:19:40.567Z,9.68
2022-07-26T04:22:07.052Z,10.10
2022-07-26T04:24:33.445Z,10.40
2022-07-26T04:27:00.372Z,9.20
2022-07-26T04:29:26.739Z,10.10
2022-07-26T04:31:53.209Z,10.55
2022-07-26T04:34:19.870Z,10.13
2022-07-26T04:36:46.557Z,9.82
2022-07-26T04:39:12.842Z,9.98
2022-07-26T04:41:39.192Z,10.70
2022-07-26T04:44:05.708Z,10.55
2022-07-26T04:46:32.329Z,10.00
2022-07-26T04:48:58.774Z,10.15
2022-07-26T04:51:25.391Z,10.27
2022-07-26T04:53:51.738Z,10.25
2022-07-26T04:56:18.050Z,10.90
2022-07-26T04:58:44.351Z,10.85
2022-07-26T05:01:11.328Z,9.50
2022-07-26T05:03:37.883Z,10.27
2022-07-26T05:06:04.493Z,10.65
2022-07-26T05:08:30.853Z,11.02
2022-07-26T05:10:57.182Z,11.63
2022-07-26T05:13:30.494Z,11.73
2022-07-26T05:15:57.700Z,10.52
2022-07-26T05:18:24.425Z,10.40
2022-07-26T05:20:50.776Z,10.18
2022-07-26T05:23:17.192Z,11.10
2022-07-26T05:25:43.528Z,11.77
2022-07-26T05:28:10.057Z,11.20
2022-07-26T05:30:36.518Z,11.57
2022-07-26T05:33:03.095Z,11.95
2022-07-26T05:35:29.471Z,11.27
2022-07-26T05:37:55.739Z,10.10
2022-07-26T05:40:22.026Z,10.35
2022-07-26T05:45:18.615Z,10.07
2022-07-26T05:47:45.011Z,10.55
2022-07-26T05:50:11.379Z,11.27
2022-07-26T05:52:37.681Z,10.85
2022-07-26T05:55:04.025Z,10.95
2022-07-26T05:57:30.495Z,10.57
2022-07-26T05:59:57.371Z,12.73
2022-07-26T06:02:23.978Z,10.43
2022-07-26T06:04:50.400Z,10.20
2022-07-26T06:07:16.843Z,10.90
2022-07-26T06:09:43.193Z,10.32
2022-07-26T06:12:10.698Z,12.15
2022-07-26T06:14:37.057Z,10.50
2022-07-26T06:17:03.438Z,10.02
2022-07-26T06:19:29.838Z,10.98
2022-07-26T06:21:56.305Z,10.85
2022-07-26T06:24:22.753Z,10.10
2022-07-26T06:26:52.295Z,10.05
2022-07-26T06:29:21.264Z,10.95
2022-07-26T06:31:48.834Z,11.18
2022-07-26T06:34:15.217Z,10.40
2022-07-26T06:36:41.635Z,9.57
2022-07-26T06:39:08.415Z,9.77
2022-07-26T06:41:34.811Z,9.55
2022-07-26T06:44:01.217Z,10.50
2022-07-26T06:46:27.713Z,10.75
2022-07-26T06:48:54.054Z,10.63
2022-07-26T06:51:23.336Z,10.33
2022-07-26T06:53:49.670Z,10.70
2022-07-26T06:56:16.038Z,10.40
2022-07-26T06:58:42.455Z,9.45
2022-07-26T07:01:09.077Z,10.45
2022-07-26T07:03:35.729Z,18.88
2022-07-26T07:06:02.090Z,10.70
2022-07-26T07:08:28.666Z,10.43
2022-07-26T07:10:55.052Z,11.00
2022-07-26T07:13:21.376Z,9.90
2022-07-26T07:15:47.759Z,12.10
2022-07-26T07:18:14.067Z,12.23
2022-07-26T07:20:40.475Z,11.40
2022-07-26T07:23:06.759Z,11.95
2022-07-26T07:25:33.110Z,9.70
2022-07-26T07:27:59.680Z,9.68
2022-07-26T07:30:29.518Z,8.95
2022-07-26T07:32:55.815Z,9.82
2022-07-26T07:35:22.986Z,9.98
2022-07-26T07:37:53.634Z,9.05
2022-07-26T07:40:20.669Z,10.32
2022-07-26T07:42:47.029Z,11.05
2022-07-26T07:45:13.395Z,10.20
2022-07-26T07:47:39.844Z,9.32
2022-07-26T07:50:06.272Z,8.85
2022-07-26T07:52:32.626Z,9.25
2022-07-26T07:55:36.080Z,9.45
2022-07-26T07:57:45.308Z,9.27
2022-07-26T08:00:12.670Z,9.60
2022-07-26T08:02:42.535Z,9.02
2022-07-26T08:05:13.926Z,11.05
2022-07-26T08:07:40.979Z,12.15
2022-07-26T08:10:07.509Z,10.63
2022-07-26T08:12:33.872Z,10.00
2022-07-26T08:15:00.240Z,9.15
2022-07-26T08:17:26.686Z,9.07
2022-07-26T08:19:59.788Z,10.80
2022-07-26T08:22:27.083Z,9.63
2022-07-26T08:24:53.389Z,10.25
2022-07-26T08:27:19.698Z,10.07
2022-07-26T08:29:46.063Z,10.60
2022-07-26T08:32:12.712Z,9.88
2022-07-26T08:34:38.975Z,8.82
2022-07-26T08:37:17.184Z,8.88
2022-07-26T08:39:44.334Z,8.93
2022-07-26T08:42:10.724Z,9.30
2022-07-26T08:44:37.295Z,9.50
2022-07-26T08:47:03.683Z,9.05
2022-07-26T08:49:30.448Z,9.27
2022-07-26T08:51:57.471Z,9.05
2022-07-26T08:54:23.794Z,10.20
2022-07-26T08:56:50.156Z,9.55
2022-07-26T08:59:21.035Z,10.63
2022-07-26T09:01:48.290Z,11.32
2022-07-26T09:04:29.918Z,10.45
2022-07-26T09:06:57.748Z,9.38
2022-07-26T09:09:24.649Z,9.48
2022-07-26T09:11:50.974Z,9.38
2022-07-26T09:14:17.639Z,9.65
2022-07-26T09:16:44.058Z,8.82
2022-07-26T09:19:10.549Z,10.68
2022-07-26T09:21:37.360Z,9.43
2022-07-26T09:24:03.789Z,10.65
2022-07-26T09:26:30.169Z,10.60
2022-07-26T09:28:56.444Z,8.90
2022-07-26T09:31:22.782Z,8.70
2022-07-26T09:33:49.863Z,10.07
2022-07-26T09:36:16.551Z,10.25
2022-07-26T09:38:42.937Z,11.68
2022-07-26T09:41:09.433Z,9.18
2022-07-26T09:43:35.812Z,11.48
2022-07-26T09:46:02.462Z,10.38
2022-07-26T09:48:36.641Z,9.77
2022-07-26T09:51:12.570Z,11.20
2022-07-26T09:53:38.978Z,10.13
2022-07-26T09:56:05.324Z,8.95
2022-07-26T09:58:31.746Z,10.02
2022-07-26T10:01:02.316Z,11.98
2022-07-26T10:03:29.080Z,10.93
2022-07-26T10:05:55.422Z,11.27
2022-07-26T10:08:21.995Z,10.13
2022-07-26T10:10:48.369Z,9.43
2022-07-26T10:13:14.719Z,9.77
2022-07-26T10:15:41.182Z,11.00
2022-07-26T10:18:09.286Z,10.40
2022-07-26T10:20:42.837Z,9.32
2022-07-26T10:23:09.257Z,13.45
2022-07-26T10:25:35.882Z,9.98
2022-07-26T10:28:02.260Z,8.77
2022-07-26T10:30:40.284Z,9.13
2022-07-26T10:33:06.647Z,10.63
2022-07-26T10:35:33.019Z,9.77
2022-07-26T10:37:59.385Z,15.77
2022-07-26T10:40:25.742Z,9.43
2022-07-26T10:42:52.097Z,11.93
2022-07-26T10:45:18.635Z,9.32
2022-07-26T10:47:45.043Z,11.18
2022-07-26T10:50:11.573Z,9.10
2022-07-26T10:52:38.062Z,9.10
2022-07-26T10:55:04.741Z,9.20
2022-07-26T10:57:31.341Z,9.27
2022-07-26T10:59:57.725Z,9.68
2022-07-26T11:02:25.521Z,12.15
2022-07-26T11:04:52.013Z,9.88
2022-07-26T11:07:18.379Z,9.93
2022-07-26T11:09:44.678Z,9.45
2022-07-26T11:12:11.179Z,8.98
2022-07-26T11:14:37.540Z,9.15
2022-07-26T11:17:03.931Z,8.57
2022-07-26T11:19:30.312Z,10.05
2022-07-26T11:21:56.856Z,9.23
2022-07-26T11:24:23.392Z,10.13
2022-07-26T11:26:49.986Z,8.60
2022-07-26T11:29:17.601Z,10.05
2022-07-26T11:31:50.834Z,8.93
2022-07-26T11:34:26.190Z,8.45
2022-07-26T11:36:52.540Z,8.85
2022-07-26T11:39:19.006Z,9.20
2022-07-26T11:41:45.314Z,8.15
2022-07-26T11:44:11.928Z,8.15
2022-07-26T11:46:38.606Z,8.13
2022-07-26T11:49:05.266Z,8.55
2022-07-26T11:51:31.662Z,9.93
2022-07-26T11:53:57.975Z,7.85
2022-07-26T11:56:24.356Z,8.45
2022-07-26T11:58:50.648Z,8.85
2022-07-26T12:01:16.993Z,9.38
2022-07-26T12:03:43.466Z,8.52
2022-07-26T12:06:10.005Z,9.90
2022-07-26T12:08:36.390Z,9.30
2022-07-26T12:11:02.691Z,9.32
2022-07-26T12:13:29.185Z,10.27
2022-07-26T12:16:06.725Z,10.60
2022-07-26T12:18:33.496Z,9.50
2022-07-26T12:21:04.595Z,9.27
2022-07-26T12:23:31.818Z,9.27
2022-07-26T12:25:58.107Z,9.15
2022-07-26T12:28:24.506Z,9.25
2022-07-26T12:30:50.940Z,10.23
2022-07-26T12:33:17.327Z,10.05
2022-07-26T12:35:43.733Z,10.02
2022-07-26T12:38:10.087Z,9.40
2022-07-26T12:40:36.428Z,9.55
2022-07-26T12:43:03.108Z,9.00
2022-07-26T12:45:29.945Z,11.32
2022-07-26T12:47:56.432Z,9.50
2022-07-26T12:50:22.850Z,10.65
2022-07-26T12:52:49.441Z,8.52
2022-07-26T12:55:15.798Z,9.93
2022-07-26T12:57:46.173Z,8.57
2022-07-26T13:00:14.078Z,9.05
2022-07-26T13:02:40.734Z,8.68
2022-07-26T13:05:07.405Z,9.77
2022-07-26T13:07:34.199Z,9.38
2022-07-26T13:10:30.495Z,9.57
2022-07-26T13:12:47.109Z,10.30
2022-07-26T13:15:13.553Z,7.93
2022-07-26T13:17:40.025Z,7.68
2022-07-26T13:20:06.556Z,7.40
2022-07-26T13:22:32.926Z,7.28
2022-07-26T13:24:59.946Z,11.80
2022-07-26T13:27:35.938Z,9.07
2022-07-26T13:30:03.115Z,9.40
2022-07-26T13:32:29.775Z,8.70
2022-07-26T13:34:56.398Z,9.80
2022-07-26T13:37:22.740Z,10.55
2022-07-26T13:39:49.108Z,7.68
2022-07-26T13:42:15.768Z,8.85
2022-07-26T13:44:42.050Z,8.13
2022-07-26T13:47:08.359Z,8.32
2022-07-26T13:49:34.800Z,10.30
2022-07-26T13:52:01.322Z,9.88
2022-07-26T13:54:27.715Z,11.57
2022-07-26T13:56:54.067Z,8.30
2022-07-26T13:59:20.543Z,7.40
2022-07-26T14:01:47.774Z,11.13
2022-07-26T14:04:14.824Z,8.73
2022-07-26T14:06:41.637Z,8.90
2022-07-26T14:09:10.757Z,10.00
2022-07-26T14:11:37.484Z,8.35
2022-07-26T14:14:03.814Z,9.15
2022-07-26T14:16:30.306Z,9.55
2022-07-26T14:18:56.901Z,9.38
2022-07-26T14:21:24.313Z,8.30
2022-07-26T14:23:50.658Z,7.80
2022-07-26T14:26:16.991Z,8.82
2022-07-26T14:28:43.342Z,8.50
2022-07-26T14:31:09.767Z,9.52
2022-07-26T14:33:36.110Z,7.88
2022-07-26T14:36:02.922Z,9.55
2022-07-26T14:38:30.208Z,7.85
2022-07-26T14:40:56.672Z,8.57
2022-07-26T14:43:23.033Z,9.95
2022-07-26T14:45:49.474Z,9.23
2022-07-26T14:48:31.615Z,8.18
2022-07-26T14:51:10.128Z,9.63
2022-07-26T14:53:36.646Z,8.23
2022-07-26T14:56:03.059Z,10.73
2022-07-26T14:58:29.395Z,7.60
2022-07-26T15:00:55.790Z,8.68
2022-07-26T15:03:22.443Z,10.10
2022-07-26T15:05:48.823Z,7.13
2022-07-26T15:08:15.181Z,8.30
2022-07-26T15:10:41.713Z,7.32
2022-07-26T15:13:08.050Z,9.45
2022-07-26T15:15:34.394Z,6.03
2022-07-26T15:18:00.858Z,8.48
2022-07-26T15:20:27.184Z,7.82
2022-07-26T15:22:53.514Z,9.35
2022-07-26T15:25:20.578Z,8.68
2022-07-26T15:27:47.038Z,7.07
2022-07-26T15:30:13.761Z,7.68
2022-07-26T15:32:41.614Z,7.78
2022-07-26T15:35:07.918Z,7.00
2022-07-26T15:37:41.096Z,7.10
2022-07-26T15:40:07.569Z,6.53
2022-07-26T15:42:33.883Z,6.20
2022-07-26T15:45:00.456Z,6.18
2022-07-26T15:47:53.816Z,7.03
2022-07-26T15:50:22.068Z,5.93
2022-07-26T15:52:48.672Z,6.25
2022-07-26T15:55:15.166Z,8.52
2022-07-26T15:57:41.491Z,6.10
2022-07-26T16:00:11.698Z,6.70
2022-07-26T16:02:38.457Z,6.05
2022-07-26T16:05:04.833Z,7.97
2022-07-26T16:07:31.209Z,6.15
2022-07-26T16:09:57.986Z,5.82
2022-07-26T16:12:24.325Z,6.90
2022-07-26T16:14:50.807Z,5.80
2022-07-26T16:17:17.162Z,6.22
2022-07-26T16:19:43.721Z,5.97
2022-07-26T16:22:10.110Z,5.20
2022-07-26T16:24:36.532Z,5.32
2022-07-26T16:27:03.007Z,4.90
2022-07-26T16:29:29.357Z,5.50
2022-07-26T16:31:55.998Z,6.50
2022-07-26T16:34:24.853Z,4.90
2022-07-26T16:36:51.455Z,5.57
2022-07-26T16:39:17.957Z,5.43
2022-07-26T16:41:44.389Z,5.10
2022-07-26T16:44:11.040Z,5.03
2022-07-26T16:46:37.518Z,5.70
2022-07-26T16:49:04.730Z,5.13
2022-07-26T16:51:31.572Z,4.43
2022-07-26T16:53:57.948Z,4.40
2022-07-26T16:56:24.339Z,5.03
2022-07-26T16:58:50.839Z,4.75
2022-07-26T17:01:17.894Z,5.72
2022-07-26T17:03:44.261Z,5.80
2022-07-26T17:06:10.793Z,5.70
2022-07-26T17:08:37.156Z,5.75
2022-07-26T17:11:03.581Z,4.65
2022-07-26T17:13:29.945Z,5.30
2022-07-26T17:15:56.461Z,5.32
2022-07-26T17:18:22.875Z,5.43
2022-07-26T17:20:49.287Z,6.45
2022-07-26T17:23:15.829Z,5.47
2022-07-26T17:25:42.153Z,4.70
2022-07-26T17:28:08.531Z,4.38
2022-07-26T17:30:34.858Z,5.15
2022-07-26T17:33:01.530Z,5.18
2022-07-26T17:35:27.927Z,4.80
2022-07-26T17:37:54.751Z,5.68
2022-07-26T17:40:21.464Z,5.18
2022-07-26T17:42:52.196Z,5.30
2022-07-26T17:45:18.614Z,4.95
2022-07-26T17:47:44.979Z,4.82
2022-07-26T17:50:35.478Z,5.72
2022-07-26T17:52:57.930Z,4.38
2022-07-26T17:55:24.353Z,5.35
2022-07-26T17:57:51.080Z,4.80
2022-07-26T18:00:17.432Z,5.25
2022-07-26T18:02:43.789Z,4.93
2022-07-26T18:05:10.418Z,4.47
2022-07-26T18:07:36.970Z,4.35
2022-07-26T18:10:03.397Z,4.97
2022-07-26T18:12:29.690Z,5.28
2022-07-26T18:14:56.047Z,5.22
2022-07-26T18:17:22.417Z,4.70
2022-07-26T18:19:48.751Z,4.82
2022-07-26T18:22:17.017Z,5.10
2022-07-26T18:24:45.626Z,4.57
2022-07-26T18:27:11.930Z,4.55
2022-07-26T18:29:38.284Z,4.40
2022-07-26T18:32:04.794Z,4.30
2022-07-26T18:34:31.159Z,4.88
2022-07-26T18:36:57.560Z,4.43
2022-07-26T18:39:23.902Z,4.50
2022-07-26T18:41:50.249Z,5.50
2022-07-26T18:44:16.592Z,4.30
2022-07-26T18:46:43.125Z,5.65
2022-07-26T18:49:09.944Z,4.40
2022-07-26T18:51:44.994Z,4.70
2022-07-26T18:54:14.954Z,4.60
2022-07-26T18:56:41.263Z,4.40
2022-07-26T18:59:07.869Z,4.18
2022-07-26T19:01:34.447Z,4.47
2022-07-26T19:04:06.141Z,4.95
2022-07-26T19:06:32.971Z,4.10
2022-07-26T19:08:59.312Z,3.97
2022-07-26T19:11:26.022Z,4.10
2022-07-26T19:13:52.458Z,4.40
2022-07-26T19:16:18.986Z,4.22
2022-07-26T19:18:49.415Z,4.28
2022-07-26T19:21:17.487Z,4.30
2022-07-26T19:23:43.802Z,3.75
2022-07-26T19:26:10.222Z,3.80
2022-07-26T19:28:36.846Z,3.65
2022-07-26T19:31:03.390Z,4.13
2022-07-26T19:33:30.074Z,4.38
2022-07-26T19:35:56.465Z,4.18
2022-07-26T19:38:22.894Z,4.80
2022-07-26T19:40:49.298Z,3.55
2022-07-26T19:43:15.918Z,3.65
2022-07-26T19:45:42.333Z,4.10
2022-07-26T19:48:15.647Z,3.80
2022-07-26T19:50:42.123Z,4.35
2022-07-26T19:53:17.178Z,3.50
2022-07-26T19:55:43.958Z,4.85
2022-07-26T19:58:10.463Z,3.88
2022-07-26T20:00:46.687Z,3.38
2022-07-26T20:03:13.531Z,3.67
2022-07-26T20:05:40.178Z,4.18
2022-07-26T20:08:06.565Z,3.50
2022-07-26T20:10:32.920Z,3.47
2022-07-26T20:12:59.562Z,4.45
2022-07-26T20:15:25.940Z,3.40
2022-07-26T20:17:52.299Z,3.85
2022-07-26T20:20:18.790Z,3.00
2022-07-26T20:22:45.164Z,3.30
2022-07-26T20:25:11.488Z,4.10
2022-07-26T20:27:39.048Z,3.63
2022-07-26T20:30:05.467Z,3.28
2022-07-26T20:32:31.846Z,3.15
2022-07-26T20:34:58.214Z,3.60
2022-07-26T20:37:24.739Z,2.92
2022-07-26T20:39:51.170Z,3.42
2022-07-26T20:42:21.460Z,4.45
2022-07-26T20:44:48.434Z,3.90
2022-07-26T20:47:15.055Z,3.10
2022-07-26T20:49:41.476Z,3.42
2022-07-26T20:52:08.064Z,3.28
2022-07-26T20:54:34.465Z,3.22
2022-07-26T20:57:00.834Z,2.92
2022-07-26T20:59:30.813Z,3.63
2022-07-26T21:01:57.297Z,3.05
2022-07-26T21:04:23.902Z,3.22
2022-07-26T21:06:50.295Z,3.17
2022-07-26T21:09:17.040Z,2.75
2022-07-26T21:11:43.533Z,3.38
2022-07-26T21:14:09.888Z,4.07
2022-07-26T21:16:36.309Z,3.13
2022-07-26T21:19:02.739Z,3.50
2022-07-26T21:21:29.222Z,3.42
2022-07-26T21:23:55.548Z,3.28
2022-07-26T21:26:21.925Z,3.22
2022-07-26T21:28:48.391Z,3.17
2022-07-26T21:31:14.759Z,3.30
2022-07-26T21:33:41.131Z,3.17
2022-07-26T21:36:07.452Z,3.55
2022-07-26T21:38:33.884Z,3.45
2022-07-26T21:41:00.280Z,3.35
2022-07-26T21:43:26.695Z,2.70
2022-07-26T21:45:53.106Z,3.35
2022-07-26T21:48:19.854Z,2.85
2022-07-26T21:50:46.486Z,2.95
2022-07-26T21:53:13.058Z,3.28
2022-07-26T21:55:39.420Z,4.03
2022-07-26T21:58:05.931Z,3.20
2022-07-26T22:00:32.270Z,3.35
2022-07-26T22:02:58.803Z,3.10
2022-07-26T22:05:25.322Z,3.13
2022-07-26T22:07:51.732Z,2.90
2022-07-26T22:10:18.252Z,3.13
2022-07-26T22:12:46.257Z,2.78
2022-07-26T22:15:12.546Z,2.75
2022-07-26T22:17:38.971Z,3.30
2022-07-26T22:20:05.385Z,2.70
2022-07-26T22:22:31.739Z,2.80
2022-07-26T22:24:58.219Z,3.05
2022-07-26T22:27:24.731Z,2.85
2022-07-26T22:29:51.067Z,3.15
2022-07-26T22:32:17.379Z,2.83
2022-07-26T22:34:43.715Z,2.35
2022-07-26T22:37:09.994Z,3.17
2022-07-26T22:39:36.319Z,3.50
2022-07-26T22:42:15.308Z,2.97
2022-07-26T22:44:42.535Z,2.90
2022-07-26T22:47:08.879Z,2.55
2022-07-26T22:49:35.300Z,4.10
2022-07-26T22:52:01.663Z,2.38
2022-07-26T22:54:28.297Z,2.47
2022-07-26T22:56:54.657Z,2.63
2022-07-26T22:59:21.045Z,2.53
2022-07-26T23:01:47.972Z,3.40
2022-07-26T23:04:14.559Z,2.47
2022-07-26T23:06:40.960Z,2.83
2022-07-26T23:09:09.710Z,3.00
2022-07-26T23:11:36.399Z,2.33
2022-07-26T23:14:02.834Z,3.05
2022-07-26T23:16:29.485Z,2.67
2022-07-26T23:18:55.904Z,2.42
2022-07-26T23:21:22.291Z,2.85
2022-07-26T23:23:48.674Z,2.78
2022-07-26T23:26:14.990Z,2.97
2022-07-26T23:28:41.342Z,2.22
2022-07-26T23:31:07.800Z,2.90
2022-07-26T23:33:51.893Z,2.75
2022-07-26T23:36:19.922Z,3.80
2022-07-26T23:38:46.239Z,3.60
2022-07-26T23:41:12.607Z,3.47
2022-07-26T23:43:38.918Z,2.95
2022-07-26T23:46:05.369Z,2.97
2022-07-26T23:48:31.801Z,2.92
2022-07-26T23:50:58.395Z,3.30
2022-07-26T23:53:26.787Z,3.53
2022-07-26T23:55:53.639Z,3.65
2022-07-26T23:58:19.975Z,3.88
